BFD weather

Bradford Regional Airport
Bradford, Pennsylvania, United States

Public forecast

Using degrees Fahrenheit for public forecast. Weather courtesy of forecast.io.

Current aviation weather report (METAR) for Bradford Regional Airport

Retrieved 2019/12/14 03:53 UTC (42 minutes ago):

KBFD 140353Z AUTO 14006KT 4SM BR OVC003 03/02 A2985 RMK AO2 SLP122 T00280017

Aviation forecast (TAF) for Bradford Regional Airport

Retrieved 2019-12-14 00:03 UTC (5 hours ago):

TAF KBFD 140000Z 1400/1424 13006KT P6SM OVC003 FM140600 10003KT 2SM -RA BR OVC004 FM141200 36003KT 1SM -RA BR OVC003